Time;durP1;ratioP1;P1;durP2;ratioP2;P2;SDS_P1;SDS_P2;PMS_P1;PMS_P2;Temp;Humidity;BMP_temperature;BMP_pressure;BME280_temperature;BME280_humidity;BME280_pressure;Samples;Min_cycle;Max_cycle;Signal;HPM_P1;HPM_P2
2024/03/10 00:02:22;;;;;;;5.37;3.40;;;14.60;69.60;;;;;;2335328;54;20945;-65
2024/03/10 00:04:48;;;;;;;5.45;3.37;;;14.60;69.60;;;;;;2334922;54;21097;-65
2024/03/10 00:07:17;;;;;;;5.28;2.97;;;14.60;69.70;;;;;;2334977;54;20973;-66
2024/03/10 00:09:45;;;;;;;5.05;3.08;;;14.60;69.80;;;;;;2335545;54;21024;-66
2024/03/10 00:12:11;;;;;;;6.57;3.33;;;14.60;69.90;;;;;;2335466;54;20935;-65
2024/03/10 00:14:38;;;;;;;5.80;3.40;;;14.60;70.00;;;;;;2580868;53;20925;-66
2024/03/10 00:17:04;;;;;;;5.32;3.15;;;14.50;69.70;;;;;;2579638;53;20941;-65
2024/03/10 00:19:30;;;;;;;5.25;3.25;;;14.50;69.80;;;;;;2335553;54;20961;-65
2024/03/10 00:21:56;;;;;;;6.55;3.40;;;14.50;69.80;;;;;;2335371;54;20945;-66
2024/03/10 00:24:23;;;;;;;7.20;3.78;;;14.50;69.80;;;;;;2335671;54;21000;-65
2024/03/10 00:26:49;;;;;;;7.10;3.75;;;14.50;69.80;;;;;;2335346;54;21549;-66
2024/03/10 00:29:16;;;;;;;7.07;4.37;;;14.40;69.60;;;;;;2335243;54;21008;-66
2024/03/10 00:31:44;;;;;;;7.10;4.50;;;14.40;69.60;;;;;;2580277;53;21065;-66
2024/03/10 00:34:10;;;;;;;6.78;3.95;;;14.40;69.70;;;;;;2554924;53;21030;-66
2024/03/10 00:36:36;;;;;;;7.25;4.15;;;14.40;69.70;;;;;;2570887;53;20957;-66
2024/03/10 00:39:04;;;;;;;6.40;3.78;;;14.40;69.70;;;;;;2335718;54;20957;-66
2024/03/10 00:41:31;;;;;;;6.97;3.72;;;14.40;69.80;;;;;;2336112;54;21705;-65
2024/03/10 00:43:57;;;;;;;7.65;3.92;;;14.40;69.80;;;;;;2335765;54;20977;-65
2024/03/10 00:46:24;;;;;;;6.72;3.78;;;14.40;69.70;;;;;;2336159;54;20947;-65
2024/03/10 00:48:50;;;;;;;5.05;2.90;;;14.30;69.50;;;;;;2310689;54;20965;-65
2024/03/10 00:51:16;;;;;;;6.78;3.22;;;14.30;69.40;;;;;;2296319;55;21025;-65
2024/03/10 00:53:42;;;;;;;6.93;3.37;;;14.30;69.30;;;;;;2330618;54;21083;-65
2024/03/10 00:56:10;;;;;;;5.00;3.05;;;14.30;69.30;;;;;;2543539;53;20985;-65
2024/03/10 00:58:36;;;;;;;5.70;3.55;;;14.30;69.20;;;;;;2580747;53;21446;-66
2024/03/10 01:01:04;;;;;;;10.43;5.72;;;14.30;69.20;;;;;;2335193;54;21060;-66
2024/03/10 01:03:32;;;;;;;10.52;6.93;;;14.30;69.40;;;;;;2580803;53;20991;-65
2024/03/10 01:05:59;;;;;;;10.73;6.72;;;14.20;69.20;;;;;;2580180;53;21008;-65
2024/03/10 01:08:26;;;;;;;9.63;6.60;;;14.20;69.30;;;;;;2579973;53;20937;-65
2024/03/10 01:10:52;;;;;;;10.57;6.85;;;14.20;69.40;;;;;;2308443;55;20966;-66
2024/03/10 01:13:18;;;;;;;10.07;6.78;;;14.20;69.50;;;;;;2335888;54;21877;-65
2024/03/10 01:15:45;;;;;;;10.13;6.65;;;14.20;69.70;;;;;;2580653;53;21277;-65
2024/03/10 01:18:11;;;;;;;9.82;6.62;;;14.20;69.80;;;;;;2580644;53;21987;-65
2024/03/10 01:20:38;;;;;;;10.32;6.78;;;14.10;69.80;;;;;;2324369;54;21092;-65
2024/03/10 01:23:04;;;;;;;10.38;6.70;;;14.10;69.80;;;;;;2298619;55;21406;-66
2024/03/10 01:25:31;;;;;;;9.68;5.72;;;14.10;69.80;;;;;;2325400;54;20984;-65
2024/03/10 01:27:57;;;;;;;7.97;5.07;;;14.10;69.90;;;;;;2335153;54;21526;-66
2024/03/10 01:30:23;;;;;;;8.63;5.10;;;14.20;70.10;;;;;;2577264;53;21013;-65
2024/03/10 01:32:52;;;;;;;8.95;5.68;;;14.10;70.10;;;;;;2579873;53;21722;-65
2024/03/10 01:35:26;;;;;;;8.32;5.03;;;14.10;70.20;;;;;;2579922;53;21068;-66
2024/03/10 01:37:53;;;;;;;7.10;4.50;;;14.20;70.10;;;;;;2334631;54;21068;-66
2024/03/10 01:40:19;;;;;;;8.95;5.15;;;14.20;70.30;;;;;;2335241;54;21446;-65
2024/03/10 01:42:53;;;;;;;7.97;5.18;;;14.10;70.20;;;;;;2579430;53;21037;-65
2024/03/10 01:45:19;;;;;;;8.68;5.05;;;14.20;69.90;;;;;;2580015;53;21435;-65
2024/03/10 01:47:47;;;;;;;6.85;4.70;;;14.20;70.30;;;;;;2335336;54;20953;-66
2024/03/10 01:50:13;;;;;;;7.53;4.68;;;14.20;70.20;;;;;;2335020;54;21442;-65
2024/03/10 01:52:41;;;;;;;7.90;5.07;;;14.10;70.00;;;;;;2335547;54;21013;-66
2024/03/10 01:55:08;;;;;;;10.27;5.25;;;14.10;69.80;;;;;;2334832;54;20968;-65
2024/03/10 01:57:37;;;;;;;7.65;4.62;;;14.10;69.80;;;;;;2580179;53;21016;-65
2024/03/10 02:00:05;;;;;;;7.62;4.37;;;14.10;69.80;;;;;;2579814;53;21021;-66
2024/03/10 02:02:36;;;;;;;7.87;4.87;;;14.10;69.90;;;;;;2335919;54;20941;-65
2024/03/10 02:05:03;;;;;;;8.30;5.00;;;14.10;69.70;;;;;;2335318;54;21000;-66
2024/03/10 02:07:30;;;;;;;7.70;4.55;;;14.10;69.80;;;;;;2580489;53;20973;-65
2024/03/10 02:09:56;;;;;;;10.10;5.65;;;14.00;69.70;;;;;;2579969;53;21249;-65
2024/03/10 02:12:23;;;;;;;7.72;5.05;;;14.00;69.70;;;;;;2579493;53;20945;-65
2024/03/10 02:15:00;;;;;;;9.05;5.53;;;14.00;69.70;;;;;;2579922;53;20977;-66
2024/03/10 02:17:30;;;;;;;8.20;4.62;;;14.00;69.10;;;;;;2335147;54;21264;-65
2024/03/10 02:19:57;;;;;;;6.53;3.97;;;14.00;69.60;;;;;;2579596;53;21297;-65
2024/03/10 02:22:26;;;;;;;7.00;4.07;;;13.90;69.80;;;;;;2580066;53;21021;-65
2024/03/10 02:24:57;;;;;;;7.32;4.03;;;13.90;69.80;;;;;;2335083;54;20917;-65
2024/03/10 02:27:24;;;;;;;7.70;4.75;;;13.90;69.70;;;;;;2580470;53;21510;-65
2024/03/10 02:30:02;;;;;;;8.95;5.10;;;13.90;69.80;;;;;;2334958;54;20981;-66
2024/03/10 02:48:58;;;;;;;6.35;4.10;;;13.80;69.70;;;;;;2308202;54;21003;-65
2024/03/10 02:51:26;;;;;;;6.72;3.62;;;13.70;69.60;;;;;;2308411;54;21011;-65
2024/03/10 02:53:52;;;;;;;6.72;4.00;;;13.70;69.60;;;;;;2308654;54;20995;-65
2024/03/10 02:56:24;;;;;;;7.05;4.22;;;13.70;69.70;;;;;;2308131;54;21270;-65
2024/03/10 02:58:51;;;;;;;6.78;4.15;;;13.60;69.40;;;;;;2308728;54;20971;-65
2024/03/10 03:01:18;;;;;;;5.75;3.30;;;13.60;69.40;;;;;;2308043;54;20995;-65
2024/03/10 03:03:45;;;;;;;5.93;3.62;;;13.60;69.50;;;;;;2547859;54;21010;-65
2024/03/10 03:06:11;;;;;;;6.80;4.43;;;13.60;69.50;;;;;;2547502;54;20987;-65
2024/03/10 03:08:37;;;;;;;7.43;4.60;;;13.50;69.40;;;;;;2309374;54;20991;-66
2024/03/10 03:11:04;;;;;;;7.47;4.35;;;13.50;69.30;;;;;;2543601;54;20987;-65
2024/03/10 03:13:30;;;;;;;7.40;4.10;;;13.50;69.30;;;;;;2540940;54;20955;-65
2024/03/10 03:15:59;;;;;;;6.68;3.85;;;13.40;69.30;;;;;;2308106;54;20996;-65
2024/03/10 03:18:26;;;;;;;7.72;4.97;;;13.40;69.40;;;;;;2311070;54;21009;-65
2024/03/10 03:20:52;;;;;;;8.88;4.18;;;13.40;69.30;;;;;;2284939;55;20984;-65
2024/03/10 03:23:21;;;;;;;6.78;3.75;;;13.30;69.20;;;;;;2301466;54;20939;-65
2024/03/10 03:25:53;;;;;;;6.95;4.00;;;13.30;69.20;;;;;;2547511;54;21598;-65
2024/03/10 03:28:20;;;;;;;6.68;3.92;;;13.30;69.40;;;;;;2547401;54;20928;-65
2024/03/10 03:30:48;;;;;;;8.93;4.60;;;13.20;68.90;;;;;;2307721;56;21094;-65
2024/03/10 03:33:14;;;;;;;7.22;4.28;;;13.10;68.80;;;;;;2308686;54;20923;-65
2024/03/10 03:35:40;;;;;;;7.00;3.85;;;13.10;68.90;;;;;;2309148;54;20940;-65
2024/03/10 03:38:08;;;;;;;7.95;4.50;;;13.10;68.90;;;;;;2547686;53;21019;-65
2024/03/10 03:40:34;;;;;;;7.18;4.43;;;13.00;68.80;;;;;;2308079;55;21339;-65
2024/03/10 03:43:00;;;;;;;7.22;4.32;;;13.00;68.80;;;;;;2307621;55;20956;-65
2024/03/10 03:45:27;;;;;;;7.25;4.18;;;12.90;68.70;;;;;;2307041;55;21003;-65
2024/03/10 03:47:53;;;;;;;8.75;4.90;;;12.90;68.80;;;;;;2307020;55;20987;-65
2024/03/10 03:50:20;;;;;;;8.15;4.62;;;12.80;68.70;;;;;;2306731;55;21395;-65
2024/03/10 03:52:51;;;;;;;7.30;4.82;;;12.80;68.80;;;;;;2308940;55;21054;-65
2024/03/10 03:55:18;;;;;;;8.13;4.68;;;12.80;68.90;;;;;;2323907;54;20948;-65
2024/03/10 03:57:45;;;;;;;7.40;4.50;;;12.70;68.90;;;;;;2586810;53;21015;-65
2024/03/10 04:00:12;;;;;;;6.62;3.97;;;12.70;68.90;;;;;;2586952;53;21719;-65
2024/03/10 04:02:39;;;;;;;7.35;4.75;;;12.70;69.00;;;;;;2340678;54;21851;-65
2024/03/10 04:05:07;;;;;;;6.47;3.67;;;12.60;69.00;;;;;;2340624;54;21021;-65
2024/03/10 04:07:33;;;;;;;6.18;3.80;;;12.60;69.10;;;;;;2341025;54;21458;-65
2024/03/10 04:09:59;;;;;;;6.22;3.60;;;12.60;69.10;;;;;;2586845;53;20996;-65
2024/03/10 04:12:26;;;;;;;6.80;4.32;;;12.60;69.10;;;;;;2339660;54;20953;-66
2024/03/10 04:14:52;;;;;;;6.70;3.92;;;12.50;69.00;;;;;;2586206;53;20937;-65
2024/03/10 04:17:18;;;;;;;7.15;4.30;;;12.50;69.10;;;;;;2585289;53;20965;-65
2024/03/10 04:19:45;;;;;;;8.65;4.43;;;12.50;69.10;;;;;;2340376;54;21006;-65
2024/03/10 04:22:13;;;;;;;6.80;4.18;;;12.40;69.00;;;;;;2316786;54;20994;-65
2024/03/10 04:24:39;;;;;;;7.53;4.50;;;12.40;69.00;;;;;;2340820;54;21917;-65
2024/03/10 04:27:09;;;;;;;10.75;5.05;;;12.40;68.90;;;;;;2317922;54;21002;-65
2024/03/10 04:29:35;;;;;;;8.82;5.28;;;12.40;68.90;;;;;;2585756;53;21021;-65
2024/03/10 04:32:07;;;;;;;8.55;5.12;;;12.30;68.70;;;;;;2340352;54;21119;-65
2024/03/10 04:34:34;;;;;;;6.40;4.10;;;12.30;68.70;;;;;;2341099;54;20953;-65
2024/03/10 04:37:00;;;;;;;6.53;3.72;;;12.30;68.90;;;;;;2587043;53;20992;-65
2024/03/10 04:39:27;;;;;;;7.68;4.25;;;12.20;68.90;;;;;;2340379;54;21021;-65
2024/03/10 04:41:54;;;;;;;6.45;3.97;;;12.20;69.00;;;;;;2318892;54;21030;-65
2024/03/10 04:44:20;;;;;;;6.80;4.28;;;12.20;69.00;;;;;;2340280;54;21000;-65
2024/03/10 04:46:47;;;;;;;8.02;4.35;;;12.20;69.00;;;;;;2340824;54;20984;-65
2024/03/10 04:49:13;;;;;;;5.95;3.22;;;12.10;68.90;;;;;;2340240;54;20981;-65
2024/03/10 04:51:39;;;;;;;6.32;3.87;;;12.10;68.90;;;;;;2587385;53;21027;-65
2024/03/10 04:54:06;;;;;;;6.43;3.65;;;12.10;68.90;;;;;;2340622;54;21841;-65
2024/03/10 04:56:35;;;;;;;6.47;3.78;;;12.00;68.60;;;;;;2340669;54;21048;-65
2024/03/10 04:59:05;;;;;;;6.80;3.58;;;12.00;68.40;;;;;;2340882;54;21027;-65
2024/03/10 05:01:33;;;;;;;5.78;3.47;;;12.00;68.40;;;;;;2586781;53;20957;-65
2024/03/10 05:03:59;;;;;;;6.15;3.67;;;11.90;68.50;;;;;;2341634;54;21009;-65
2024/03/10 05:06:26;;;;;;;6.15;3.65;;;11.80;68.50;;;;;;2586571;53;21020;-65
2024/03/10 05:08:52;;;;;;;6.40;4.10;;;11.80;68.50;;;;;;2341205;54;21237;-65
2024/03/10 05:11:19;;;;;;;7.03;4.40;;;11.80;68.50;;;;;;2333600;54;21058;-65
2024/03/10 05:13:45;;;;;;;6.75;4.25;;;11.70;68.50;;;;;;2324312;54;20940;-65
2024/03/10 05:16:12;;;;;;;8.10;4.50;;;11.70;68.60;;;;;;2340934;54;21541;-65
2024/03/10 05:18:40;;;;;;;7.53;4.35;;;11.60;68.50;;;;;;2340807;54;20932;-65
2024/03/10 05:21:07;;;;;;;8.85;4.25;;;11.60;68.70;;;;;;2585808;53;20949;-65
2024/03/10 05:23:34;;;;;;;7.70;4.62;;;11.60;68.70;;;;;;2342768;54;20963;-65
2024/03/10 05:26:05;;;;;;;7.60;4.05;;;11.60;68.80;;;;;;2305612;54;21005;-65
2024/03/10 05:28:32;;;;;;;7.03;4.03;;;11.60;68.80;;;;;;2328061;54;21272;-65
2024/03/10 05:30:58;;;;;;;6.93;3.62;;;11.50;68.80;;;;;;2325513;54;21051;-65
2024/03/10 05:33:24;;;;;;;6.35;4.25;;;11.50;68.80;;;;;;2333048;54;21446;-65
2024/03/10 05:35:51;;;;;;;5.68;3.67;;;11.50;68.90;;;;;;2340269;54;20992;-65
2024/03/10 05:38:18;;;;;;;7.37;3.83;;;11.50;68.90;;;;;;2318013;54;20948;-65
2024/03/10 05:40:44;;;;;;;6.60;3.42;;;11.50;69.00;;;;;;2340665;54;21451;-65
2024/03/10 05:43:11;;;;;;;6.57;3.78;;;11.40;68.90;;;;;;2558770;53;21416;-65
2024/03/10 05:45:37;;;;;;;10.57;4.45;;;11.40;68.90;;;;;;2297692;55;20982;-65
2024/03/10 05:48:04;;;;;;;5.60;3.65;;;11.40;68.90;;;;;;2572430;53;20986;-65
2024/03/10 05:50:32;;;;;;;4.95;3.00;;;11.40;68.90;;;;;;2321004;55;21344;-65
2024/03/10 05:52:58;;;;;;;6.03;3.62;;;11.40;69.00;;;;;;2587070;53;21053;-65
2024/03/10 05:55:25;;;;;;;7.28;4.37;;;11.30;68.90;;;;;;2341075;54;20928;-65
2024/03/10 05:57:54;;;;;;;6.05;3.28;;;11.30;68.90;;;;;;2340685;54;20968;-65
2024/03/10 06:00:23;;;;;;;6.93;3.25;;;11.30;68.90;;;;;;2340015;54;20960;-65
2024/03/10 06:02:49;;;;;;;4.72;2.78;;;11.30;69.00;;;;;;2339749;54;20980;-65
2024/03/10 06:05:15;;;;;;;5.87;2.85;;;11.30;69.00;;;;;;2340665;54;20972;-65
2024/03/10 06:07:45;;;;;;;7.15;2.95;;;11.20;68.90;;;;;;2560548;53;21035;-65
2024/03/10 06:10:11;;;;;;;5.07;2.80;;;11.20;69.00;;;;;;2336062;54;20985;-65
2024/03/10 06:12:42;;;;;;;5.45;3.08;;;11.20;69.00;;;;;;2340434;54;20984;-65
2024/03/10 06:15:16;;;;;;;5.78;3.45;;;11.20;69.00;;;;;;2340136;54;21076;-65
2024/03/10 06:17:50;;;;;;;6.70;3.53;;;11.20;69.00;;;;;;2586416;53;20956;-64
2024/03/10 06:25:49;;;;;;;6.47;4.10;;;11.10;69.10;;;;;;2337182;54;20968;-65
2024/03/10 06:28:18;;;;;;;5.75;3.40;;;11.10;69.10;;;;;;2586248;53;20957;-65
2024/03/10 06:30:46;;;;;;;5.70;3.35;;;11.10;69.20;;;;;;2339719;54;21044;-65
2024/03/10 06:33:14;;;;;;;5.82;3.50;;;11.10;69.40;;;;;;2587024;53;21201;-65
2024/03/10 06:35:40;;;;;;;7.03;4.07;;;11.10;69.40;;;;;;2340888;54;21015;-65
2024/03/10 06:38:09;;;;;;;7.37;4.43;;;11.10;69.50;;;;;;2586735;53;20957;-64
2024/03/10 06:40:36;;;;;;;7.00;4.20;;;11.10;69.50;;;;;;2340643;54;21013;-65
2024/03/10 06:43:02;;;;;;;6.72;4.65;;;11.10;69.60;;;;;;2319628;54;20964;-65
2024/03/10 06:45:28;;;;;;;8.27;5.37;;;11.10;69.60;;;;;;2338838;54;22619;-65
2024/03/10 06:47:54;;;;;;;7.15;4.60;;;11.10;69.70;;;;;;2586520;53;20957;-65
2024/03/10 06:50:24;;;;;;;9.00;4.95;;;11.10;69.80;;;;;;2342656;54;20953;-65
2024/03/10 06:52:50;;;;;;;7.65;4.62;;;11.10;69.80;;;;;;2556560;53;20932;-65
2024/03/10 06:55:17;;;;;;;6.22;3.70;;;11.10;69.90;;;;;;2341296;54;21044;-64
2024/03/10 06:57:46;;;;;;;8.65;5.45;;;11.10;70.00;;;;;;2586222;53;21328;-65
2024/03/10 07:00:13;;;;;;;9.50;5.40;;;11.10;70.10;;;;;;2340969;54;20941;-65
2024/03/10 07:02:45;;;;;;;9.63;5.93;;;11.20;70.20;;;;;;2340598;54;21048;-65
2024/03/10 07:05:12;;;;;;;8.48;5.82;;;11.20;70.00;;;;;;2586203;53;21229;-65
2024/03/10 07:07:38;;;;;;;7.97;5.00;;;11.20;70.00;;;;;;2340207;54;20985;-65
2024/03/10 07:10:09;;;;;;;8.65;5.35;;;11.20;70.10;;;;;;2339947;54;21000;-65
2024/03/10 07:12:36;;;;;;;7.97;5.20;;;11.20;70.10;;;;;;2340363;54;20928;-65
2024/03/10 07:15:02;;;;;;;10.55;6.50;;;11.20;70.20;;;;;;2585505;53;21052;-65
2024/03/10 07:17:28;;;;;;;11.43;5.90;;;11.30;70.30;;;;;;2340095;54;20993;-65
2024/03/10 07:19:55;;;;;;;8.52;5.45;;;11.30;70.40;;;;;;2340652;54;21959;-65
2024/03/10 07:22:22;;;;;;;7.70;5.53;;;11.30;70.30;;;;;;2585939;53;21943;-65
2024/03/10 07:24:48;;;;;;;8.70;5.10;;;11.30;70.40;;;;;;2339801;54;21766;-65
2024/03/10 07:27:14;;;;;;;11.77;6.50;;;11.40;70.60;;;;;;2577771;53;20979;-65
2024/03/10 07:29:41;;;;;;;10.93;6.50;;;11.40;70.70;;;;;;2562240;53;20968;-65
2024/03/10 07:32:08;;;;;;;10.23;6.50;;;11.40;70.70;;;;;;2341064;54;20967;-65
2024/03/10 07:34:38;;;;;;;10.63;6.20;;;11.50;70.80;;;;;;2318890;55;20939;-65
2024/03/10 07:37:05;;;;;;;9.52;5.70;;;11.50;70.70;;;;;;2585185;53;20949;-65
2024/03/10 07:39:31;;;;;;;8.98;5.50;;;11.50;70.80;;;;;;2586794;53;21621;-65
2024/03/10 07:41:58;;;;;;;9.40;5.65;;;11.60;70.90;;;;;;2341453;54;21020;-65
2024/03/10 07:44:25;;;;;;;9.50;5.32;;;11.60;71.60;;;;;;2322258;54;20958;-65
2024/03/10 07:46:51;;;;;;;7.30;4.60;;;11.60;70.90;;;;;;2580437;53;21008;-65
2024/03/10 07:49:17;;;;;;;8.27;5.37;;;11.70;71.00;;;;;;2586793;53;20937;-65
2024/03/10 07:51:46;;;;;;;8.45;5.45;;;11.70;71.00;;;;;;2339449;54;21000;-65
2024/03/10 07:54:13;;;;;;;8.32;5.15;;;11.80;70.90;;;;;;2341214;54;21012;-65
2024/03/10 07:56:39;;;;;;;9.43;5.60;;;11.80;70.90;;;;;;2340227;54;21272;-65
2024/03/10 07:59:07;;;;;;;7.37;4.85;;;11.80;70.80;;;;;;2340955;54;22473;-65
2024/03/10 08:01:33;;;;;;;8.15;4.65;;;11.80;70.80;;;;;;2340465;54;21032;-65
2024/03/10 08:04:00;;;;;;;8.10;4.97;;;11.80;70.70;;;;;;2586425;53;21274;-65
2024/03/10 08:06:26;;;;;;;8.63;5.35;;;11.90;70.80;;;;;;2586463;53;20937;-65
2024/03/10 08:08:52;;;;;;;11.07;6.80;;;11.90;70.80;;;;;;2340654;54;20937;-65
2024/03/10 08:11:23;;;;;;;8.82;5.70;;;11.90;70.70;;;;;;2339889;54;20969;-65
2024/03/10 08:13:50;;;;;;;8.80;5.43;;;11.80;70.70;;;;;;2569830;53;21110;-66
2024/03/10 08:16:16;;;;;;;9.10;4.53;;;12.00;71.00;;;;;;2327513;54;21257;-65
2024/03/10 08:18:44;;;;;;;7.35;4.57;;;12.00;71.00;;;;;;2340238;54;20933;-65
2024/03/10 08:21:11;;;;;;;7.37;4.78;;;12.00;70.90;;;;;;2340880;54;20944;-65
2024/03/10 08:23:38;;;;;;;6.85;4.45;;;12.10;71.10;;;;;;2340485;54;20973;-65
2024/03/10 08:26:04;;;;;;;6.15;3.87;;;12.10;71.30;;;;;;2340157;54;20969;-65
2024/03/10 08:28:30;;;;;;;8.13;4.75;;;12.10;71.20;;;;;;2340571;54;21484;-65
2024/03/10 08:30:58;;;;;;;7.53;4.28;;;12.20;71.30;;;;;;2340079;54;21367;-65
2024/03/10 08:33:26;;;;;;;5.78;3.90;;;12.20;71.30;;;;;;2586905;53;20933;-65
2024/03/10 08:35:53;;;;;;;6.93;4.20;;;12.30;71.30;;;;;;2586668;53;20964;-65
2024/03/10 08:38:20;;;;;;;5.78;3.42;;;12.30;71.20;;;;;;2587042;53;20949;-66
2024/03/10 08:40:47;;;;;;;6.40;3.60;;;12.40;71.20;;;;;;2318446;54;21352;-65
2024/03/10 08:43:14;;;;;;;5.90;3.47;;;12.40;71.30;;;;;;2586284;53;20936;-65
2024/03/10 08:45:41;;;;;;;5.30;3.20;;;12.40;71.40;;;;;;2340365;54;20992;-65
2024/03/10 08:48:09;;;;;;;6.03;2.97;;;12.50;71.40;;;;;;2586894;53;20953;-65
2024/03/10 08:50:36;;;;;;;5.85;3.37;;;12.50;71.30;;;;;;2340513;54;20969;-66
2024/03/10 08:53:04;;;;;;;6.57;3.72;;;12.60;71.30;;;;;;2340719;54;21020;-65
2024/03/10 08:55:30;;;;;;;7.78;4.40;;;12.60;71.20;;;;;;2587461;53;21250;-66
2024/03/10 08:57:57;;;;;;;7.90;4.50;;;12.70;71.30;;;;;;2586135;53;20956;-66
2024/03/10 09:00:24;;;;;;;8.57;5.45;;;12.70;71.00;;;;;;2340821;54;21000;-64
2024/03/10 09:02:54;;;;;;;8.55;5.95;;;12.70;70.70;;;;;;2340254;54;20917;-65
2024/03/10 09:05:23;;;;;;;9.77;6.55;;;12.70;70.20;;;;;;2341340;54;21300;-65
2024/03/10 09:07:50;;;;;;;7.35;4.85;;;12.80;70.30;;;;;;2586383;53;20949;-65
2024/03/10 09:10:23;;;;;;;7.15;4.85;;;12.80;70.30;;;;;;2554183;53;20945;-66
2024/03/10 09:12:52;;;;;;;10.15;5.62;;;12.80;69.90;;;;;;2586375;53;21466;-66
2024/03/10 09:15:19;;;;;;;7.87;5.45;;;12.80;69.80;;;;;;2306334;54;21014;-65
2024/03/10 09:17:46;;;;;;;8.63;5.53;;;12.80;70.00;;;;;;2308670;54;21452;-65
2024/03/10 09:20:13;;;;;;;11.85;6.45;;;12.80;69.90;;;;;;2301945;54;20979;-65
2024/03/10 09:22:43;;;;;;;9.60;6.05;;;12.80;70.00;;;;;;2309096;54;21623;-65
2024/03/10 09:25:20;;;;;;;9.02;5.50;;;12.80;69.80;;;;;;2303647;54;21487;-66
2024/03/10 09:27:51;;;;;;;10.68;6.18;;;12.80;69.80;;;;;;2308323;54;20931;-65
2024/03/10 09:30:21;;;;;;;8.20;4.82;;;12.80;69.80;;;;;;2309144;54;21003;-65
2024/03/10 09:32:50;;;;;;;8.10;5.28;;;12.80;69.90;;;;;;2547165;54;21428;-65
2024/03/10 09:35:35;;;;;;;9.73;5.20;;;12.80;70.10;;;;;;2547494;54;21019;-65
2024/03/10 09:38:05;;;;;;;9.45;5.50;;;12.90;70.20;;;;;;2308332;54;20947;-65
2024/03/10 09:40:32;;;;;;;9.25;5.30;;;12.90;70.30;;;;;;2309292;54;21026;-65
2024/03/10 09:43:02;;;;;;;14.55;8.85;;;12.90;70.20;;;;;;2546885;54;20956;-66
2024/03/10 09:45:28;;;;;;;13.68;7.85;;;12.90;70.30;;;;;;2308883;54;20956;-65
2024/03/10 09:47:55;;;;;;;12.98;8.57;;;12.90;70.30;;;;;;2545944;54;20952;-65
2024/03/10 09:50:24;;;;;;;18.42;8.15;;;13.00;70.30;;;;;;2511132;54;20995;-65
2024/03/10 09:52:53;;;;;;;12.88;7.72;;;13.00;70.30;;;;;;2303597;55;21063;-65
2024/03/10 09:55:20;;;;;;;10.25;7.28;;;13.00;70.30;;;;;;2307917;54;20924;-66
2024/03/10 09:57:55;;;;;;;12.75;7.53;;;13.00;70.30;;;;;;2544007;53;21569;-65
2024/03/10 10:00:28;;;;;;;13.20;8.20;;;13.10;70.30;;;;;;2333722;54;21067;-65
2024/03/10 10:03:02;;;;;;;14.25;8.13;;;13.10;70.10;;;;;;2578493;53;20982;-65
2024/03/10 10:05:38;;;;;;;10.88;7.50;;;13.10;70.20;;;;;;2301066;55;21125;-65
2024/03/10 10:08:10;;;;;;;11.57;6.43;;;13.10;70.50;;;;;;2586204;53;21997;-65
2024/03/10 10:10:37;;;;;;;9.18;5.65;;;13.20;70.90;;;;;;2340750;54;20983;-65
2024/03/10 10:13:04;;;;;;;9.75;5.78;;;13.30;71.00;;;;;;2585949;53;21017;-65
2024/03/10 10:15:33;;;;;;;7.60;5.20;;;13.30;71.10;;;;;;2340490;54;20969;-65
2024/03/10 10:18:01;;;;;;;8.43;5.82;;;13.40;71.00;;;;;;2338702;54;20961;-65
2024/03/10 10:20:28;;;;;;;9.23;5.93;;;13.40;71.20;;;;;;2339729;54;20965;-65
2024/03/10 10:22:55;;;;;;;10.20;6.43;;;13.50;71.30;;;;;;2340929;54;20965;-66
2024/03/10 10:25:23;;;;;;;12.50;7.40;;;13.50;71.20;;;;;;2340020;54;20977;-66
2024/03/10 10:27:52;;;;;;;9.13;6.22;;;13.50;71.00;;;;;;2585994;53;20972;-65
2024/03/10 10:30:27;;;;;;;10.02;7.05;;;13.60;70.80;;;;;;2574678;53;21010;-66
2024/03/10 10:33:11;;;;;;;9.65;6.50;;;13.60;70.90;;;;;;2568917;53;20964;-66
2024/03/10 10:35:45;;;;;;;10.50;6.43;;;13.70;70.50;;;;;;2326805;54;21290;-65
2024/03/10 10:38:12;;;;;;;9.00;6.45;;;13.70;71.20;;;;;;2565504;53;21040;-65
2024/03/10 10:40:44;;;;;;;9.90;6.07;;;13.70;71.20;;;;;;2586825;53;20949;-65
2024/03/10 10:43:12;;;;;;;;;;;13.80;71.10;;;;;;2557828;53;20986;-66
2024/03/10 10:45:38;;;;;;;9.95;6.65;;;13.90;69.50;;;;;;2342099;54;20335;-65
2024/03/10 10:48:08;;;;;;;9.73;6.18;;;13.90;71.20;;;;;;2585871;53;21008;-66
2024/03/10 10:50:42;;;;;;;8.82;5.80;;;14.00;71.00;;;;;;2586074;53;21264;-66
2024/03/10 10:53:11;;;;;;;12.45;7.20;;;14.00;71.00;;;;;;2340121;54;21822;-66
2024/03/10 10:55:41;;;;;;;10.35;6.43;;;14.00;70.90;;;;;;2340083;54;20966;-65
2024/03/10 10:58:18;;;;;;;10.93;6.78;;;14.10;71.00;;;;;;2585873;53;20960;-66
2024/03/10 11:00:49;;;;;;;8.85;6.15;;;14.10;70.70;;;;;;2340197;54;20952;-66
2024/03/10 11:03:28;;;;;;;8.32;5.70;;;14.20;70.80;;;;;;2340018;54;20945;-66
2024/03/10 11:06:55;;;;;;;8.65;5.43;;;14.20;70.70;;;;;;2340296;54;21805;-65
2024/03/10 11:09:28;;;;;;;8.15;5.53;;;14.30;69.70;;;;;;2340613;54;21441;-66
2024/03/10 11:11:54;;;;;;;8.57;5.45;;;14.40;71.60;;;;;;2340694;54;20993;-66
2024/03/10 11:14:24;;;;;;;8.38;5.65;;;14.50;72.00;;;;;;2581694;53;20957;-66
2024/03/10 11:17:10;;;;;;;11.20;6.47;;;14.60;72.00;;;;;;2316429;54;20964;-65
2024/03/10 11:19:40;;;;;;;10.63;6.57;;;14.70;70.80;;;;;;2586309;53;21028;-66
2024/03/10 11:22:08;;;;;;;10.30;6.43;;;14.80;71.90;;;;;;2342029;54;20952;-66
2024/03/10 11:24:35;;;;;;;9.95;6.05;;;14.80;72.00;;;;;;2555029;53;21056;-65
2024/03/10 11:27:15;;;;;;;9.27;6.30;;;14.90;72.10;;;;;;2315610;55;20997;-66
2024/03/10 11:29:41;;;;;;;9.57;5.95;;;15.00;71.10;;;;;;2340160;54;20997;-66
2024/03/10 11:32:33;;;;;;;9.57;6.25;;;15.10;71.90;;;;;;2585048;53;21276;-66
2024/03/10 11:35:00;;;;;;;8.60;5.40;;;15.20;70.50;;;;;;2340039;54;20937;-66
2024/03/10 11:37:29;;;;;;;9.30;5.93;;;15.30;71.80;;;;;;2585132;53;20960;-66
2024/03/10 11:39:57;;;;;;;8.88;5.78;;;15.40;71.60;;;;;;2330361;54;21002;-65
2024/03/10 11:42:23;;;;;;;9.57;5.40;;;15.40;71.70;;;;;;2323741;54;20945;-65
2024/03/10 11:44:49;;;;;;;10.20;6.32;;;15.40;71.60;;;;;;2585647;53;20961;-67
2024/03/10 11:47:21;;;;;;;9.23;5.55;;;15.50;71.50;;;;;;2339907;54;20960;-66
2024/03/10 11:49:50;;;;;;;8.85;5.87;;;15.50;71.50;;;;;;2340451;54;20972;-66
2024/03/10 11:52:20;;;;;;;9.68;6.18;;;15.60;71.40;;;;;;2340138;54;21018;-65
2024/03/10 11:54:58;;;;;;;7.95;5.28;;;15.60;71.40;;;;;;2586042;53;21020;-66
2024/03/10 11:57:25;;;;;;;7.07;4.72;;;15.70;70.70;;;;;;2585940;53;21032;-66
2024/03/10 11:59:58;;;;;;;8.75;5.07;;;15.80;71.80;;;;;;2339585;54;21017;-66
2024/03/10 12:02:25;;;;;;;8.07;5.15;;;15.80;71.30;;;;;;2340393;54;21048;-66
2024/03/10 12:04:54;;;;;;;6.57;4.30;;;15.90;71.50;;;;;;2340110;54;20940;-66
2024/03/10 12:07:25;;;;;;;7.37;4.65;;;16.00;71.60;;;;;;2333901;54;21267;-65
2024/03/10 12:09:55;;;;;;;8.27;5.40;;;16.00;71.30;;;;;;2566067;53;20964;-65
2024/03/10 12:12:30;;;;;;;8.80;4.62;;;16.10;71.20;;;;;;2340469;55;21000;-66
2024/03/10 12:14:56;;;;;;;5.55;3.78;;;16.20;70.90;;;;;;2584881;53;21024;-66
2024/03/10 12:17:23;;;;;;;6.87;4.57;;;16.20;71.40;;;;;;2585826;53;20933;-66
2024/03/10 12:19:49;;;;;;;7.30;4.30;;;16.20;71.20;;;;;;2559087;53;20990;-66
2024/03/10 12:22:17;;;;;;;7.50;5.12;;;16.30;70.90;;;;;;2324413;54;21414;-66
2024/03/10 12:24:44;;;;;;;8.52;4.93;;;16.30;70.50;;;;;;2328904;54;20929;-66
2024/03/10 12:27:12;;;;;;;9.85;6.12;;;16.30;70.40;;;;;;2340306;54;21418;-66
2024/03/10 12:29:45;;;;;;;7.68;4.90;;;16.40;70.10;;;;;;2339967;54;20955;-66
2024/03/10 12:32:13;;;;;;;9.88;6.00;;;16.40;69.40;;;;;;2338769;54;21048;-66
2024/03/10 12:34:39;;;;;;;9.20;5.25;;;16.40;69.70;;;;;;2340678;54;21276;-66
2024/03/10 12:37:06;;;;;;;7.30;4.40;;;16.40;69.50;;;;;;2339721;54;20996;-66
2024/03/10 12:39:32;;;;;;;6.55;3.72;;;16.40;69.20;;;;;;2586602;53;20984;-66
2024/03/10 12:41:59;;;;;;;7.65;3.75;;;16.40;69.40;;;;;;2339332;54;21025;-66
2024/03/10 12:44:25;;;;;;;6.10;4.15;;;16.40;69.40;;;;;;2327516;54;20954;-66
2024/03/10 12:46:51;;;;;;;8.23;4.78;;;16.30;69.20;;;;;;2329338;54;21038;-65
2024/03/10 12:49:18;;;;;;;6.75;3.87;;;16.40;69.20;;;;;;2339262;54;20948;-66
2024/03/10 12:51:44;;;;;;;6.30;3.85;;;16.30;69.10;;;;;;2318722;55;21899;-66
2024/03/10 12:54:11;;;;;;;6.53;4.40;;;16.30;69.10;;;;;;2321260;54;20938;-66
2024/03/10 12:56:37;;;;;;;7.60;4.47;;;16.30;69.10;;;;;;2340170;54;21324;-66
2024/03/10 12:59:03;;;;;;;7.68;4.25;;;16.30;69.10;;;;;;2340097;54;22427;-66
2024/03/10 13:01:34;;;;;;;8.80;4.18;;;16.20;69.00;;;;;;2340288;54;21004;-65
2024/03/10 13:04:01;;;;;;;7.35;4.40;;;16.20;68.80;;;;;;2340166;54;21818;-66
2024/03/10 13:06:27;;;;;;;7.12;4.40;;;16.20;69.00;;;;;;2339943;54;21204;-65
2024/03/10 13:08:53;;;;;;;7.50;4.68;;;16.20;69.00;;;;;;2568701;53;20958;-65
2024/03/10 13:11:26;;;;;;;7.70;4.90;;;16.20;68.90;;;;;;2328587;54;21009;-65
2024/03/10 13:13:57;;;;;;;7.80;4.72;;;16.20;68.90;;;;;;2339875;54;21340;-66